Accueil
METAR-TAF:

METAR-TAF

Aéroports :

Plate-forme pétrolière

Ula, Norvège

latitude: 59-06-39N, longitude: 2-50-45E, altitude: 0 m

Observation

Le bulletin a été fait il y a 44 minutes, à 13:50 UTC
Vent 23 kt de sud
Température 7°C
Humidité 93%
Pression 1001 hPa
Visibilité: 9000 m

METAR: ENLA 261350Z AUTO 17023KT 9000NDV BKN014/// 07/06 Q1001 W///S4

Heure: 15:34 (14:34 UTC)


TAF: absent

Observations et prévisions météorologiques de plus de 4000 aéroports (messages METAR et TAF).

Les stations disponibles sont représentées par des disques jaunes et rouges sur la carte.

Passer la souris dessus pour voir le nom de la station.

Cliquer dessus pour voir les observations et prévisions météorologiques.

Pour changer de carte: cliquez sur les boutons verts avec une croix noire pour zoomer, sur le bouton vert avec un tiret pour effectuer un zoom arrière, ou sur les flèches vertes pour les cartes adjacentes.


METAR-TAF: